| time (UTC) | temp F | wind direction | speed MPH | gust MPH | rain 1hr in | rain 24hr in | rain mn in | humidity % | barometer mb |
| 20260509174535 | 56 | 224 | 0.0 | 1.0 | 0.00 | 0.19 | 0.20 | 73 | 1011.8 |
| 20260509174223 | 56 | 224 | 0.0 | 1.0 | 0.00 | 0.19 | 0.20 | 73 | 1011.8 |
| 20260509173922 | 56 | 224 | 0.0 | 1.0 | 0.00 | 0.19 | 0.20 | 73 | 1011.8 |
| 20260509173612 | 56 | 224 | 0.0 | 1.0 | 0.00 | 0.19 | 0.20 | 73 | 1011.8 |
| 20260509173314 | 56 | 224 | 0.0 | 1.0 | 0.00 | 0.19 | 0.20 | 73 | 1011.8 |
| 20260509173001 | 56 | 230 | 0.0 | 0.0 | 0.00 | 0.19 | 0.20 | 73 | 1011.9 |
| 20260509172647 | 56 | 231 | 0.0 | 0.0 | 0.00 | 0.19 | 0.20 | 72 | 1011.8 |
| 20260509172348 | 55 | 231 | 0.0 | 0.0 | 0.00 | 0.19 | 0.20 | 72 | 1011.9 |
| 20260509171626 | 55 | 162 | 0.0 | 0.0 | 0.00 | 0.19 | 0.20 | 72 | 1012.1 |
| 20260509170900 | 55 | 123 | 0.0 | 0.0 | 0.00 | 0.19 | 0.20 | 72 | 1012.2 |
| 20260509170547 | 55 | 190 | 0.0 | 2.0 | 0.00 | 0.19 | 0.20 | 72 | 1012.2 |
| 20260509170248 | 55 | 223 | 0.0 | 2.0 | 0.00 | 0.19 | 0.19 | 72 | 1012.2 |
| 20260509165934 | 55 | 314 | 0.0 | 2.0 | 0.00 | 0.19 | 0.19 | 72 | 1012.2 |
| 20260509165209 | 55 | 200 | 0.0 | 1.0 | 0.00 | 0.19 | 0.19 | 72 | 1012.3 |
| 20260509164428 | 55 | 91 | 0.0 | 2.0 | 0.00 | 0.19 | 0.19 | 72 | 1012.2 |
| 20260509164130 | 55 | 205 | 0.0 | 2.0 | 0.00 | 0.18 | 0.18 | 72 | 1012.1 |
| 20260509163822 | 55 | 101 | 0.0 | 2.0 | 0.00 | 0.18 | 0.18 | 72 | 1012.2 |
| 20260509163523 | 55 | 97 | 0.0 | 2.0 | 0.00 | 0.18 | 0.18 | 72 | 1012.3 |
| 20260509163227 | 55 | 215 | 0.0 | 2.0 | 0.00 | 0.18 | 0.18 | 72 | 1012.2 |
| 20260509162918 | 55 | 117 | 1.0 | 3.0 | 0.00 | 0.18 | 0.18 | 71 | 1012.1 |
| 20260509162201 | 55 | 178 | 0.0 | 3.0 | 0.04 | 0.18 | 0.18 | 71 | 1012.1 |
| 20260509161853 | 54 | 195 | 0.0 | 7.0 | 0.05 | 0.18 | 0.18 | 70 | 1012.0 |
| 20260509161130 | 54 | 136 | 1.0 | 7.0 | 0.06 | 0.18 | 0.18 | 70 | 1011.7 |
| 20260509160402 | 55 | 344 | 2.0 | 7.0 | 0.05 | 0.16 | 0.17 | 70 | 1011.5 |
| 20260509160056 | 55 | 325 | 1.0 | 5.0 | 0.05 | 0.16 | 0.17 | 69 | 1011.6 |
| 20260509155749 | 55 | 312 | 1.0 | 4.0 | 0.05 | 0.16 | 0.17 | 69 | 1011.6 |
| 20260509155435 | 55 | 42 | 0.0 | 4.0 | 0.06 | 0.16 | 0.16 | 69 | 1011.6 |
| 20260509155136 | 55 | 335 | 0.0 | 3.0 | 0.06 | 0.16 | 0.16 | 69 | 1011.8 |
| 20260509154824 | 55 | 263 | 0.0 | 2.0 | 0.06 | 0.16 | 0.16 | 69 | 1011.8 |
| 20260509153633 | 55 | 318 | 0.0 | 1.0 | 0.09 | 0.14 | 0.15 | 69 | 1012.1 |
| 20260509153322 | 55 | 326 | 0.0 | 1.0 | 0.09 | 0.13 | 0.13 | 68 | 1012.2 |
| 20260509153021 | 55 | 307 | 0.0 | 0.0 | 0.09 | 0.13 | 0.13 | 68 | 1012.3 |
| 20260509152714 | 55 | 293 | 0.0 | 1.0 | 0.12 | 0.13 | 0.13 | 68 | 1012.5 |
| 20260509152410 | 55 | 222 | 0.0 | 0.0 | 0.16 | 0.13 | 0.13 | 67 | 1012.7 |
| 20260509152107 | 55 | 93 | 0.0 | 0.0 | 0.12 | 0.12 | 0.12 | 67 | 1012.6 |
| 20260509151801 | 55 | 86 | 0.0 | 0.0 | 0.13 | 0.10 | 0.10 | 67 | 1012.8 |
| 20260509151448 | 55 | 94 | 0.0 | 0.0 | 0.15 | 0.10 | 0.10 | 66 | 1012.9 |
| 20260509151136 | 55 | 94 | 0.0 | 0.0 | 0.13 | 0.09 | 0.10 | 66 | 1013.0 |
| 20260509150824 | 55 | 94 | 0.0 | 0.0 | 0.17 | 0.09 | 0.09 | 66 | 1012.9 |
| 20260509150517 | 55 | 94 | 0.0 | 0.0 | 0.20 | 0.08 | 0.09 | 66 | 1013.0 |
| 20260509150212 | 55 | 163 | 0.0 | 0.0 | 0.21 | 0.06 | 0.08 | 66 | 1013.0 |
| 20260509145916 | 55 | 164 | 0.0 | 0.0 | 0.18 | 0.06 | 0.06 | 66 | 1013.1 |
| 20260509145608 | 55 | 164 | 0.0 | 0.0 | 0.13 | 0.04 | 0.06 | 66 | 1013.0 |
| 20260509145307 | 55 | 164 | 0.0 | 0.0 | 0.18 | 0.04 | 0.05 | 66 | 1012.9 |
| 20260509145005 | 55 | 164 | 0.0 | 0.0 | 0.06 | 0.04 | 0.04 | 66 | 1012.9 |
| 20260509144238 | 55 | 158 | 0.0 | 0.0 | 0.05 | 0.03 | 0.03 | 66 | 1012.6 |
| 20260509143935 | 55 | 158 | 0.0 | 0.0 | 0.05 | 0.03 | 0.03 | 65 | 1012.5 |
| 20260509143636 | 55 | 158 | 0.0 | 0.0 | 0.00 | 0.02 | 0.02 | 65 | 1012.5 |
| 20260509143336 | 55 | 225 | 0.0 | 0.0 | 0.00 | 0.02 | 0.02 | 65 | 1012.6 |
| 20260509143023 | 55 | 225 | 0.0 | 0.0 | 0.00 | 0.02 | 0.02 | 66 | 1012.5 |
| 20260509142255 | 55 | 225 | 0.0 | 0.0 | 0.00 | 0.01 | 0.01 | 65 | 1012.5 |
| 20260509141959 | 55 | 222 | 0.0 | 0.0 | 0.00 | 0.01 | 0.01 | 65 | 1012.5 |
| 20260509141659 | 54 | 222 | 0.0 | 0.0 | 0.00 | 0.01 | 0.01 | 65 | 1012.4 |
| 20260509140923 | 54 | 206 | 0.0 | 6.0 | 0.00 | 0.01 | 0.01 | 64 | 1012.2 |
| 20260509140610 | 55 | 301 | 1.0 | 6.0 | 0.00 | 0.01 | 0.01 | 64 | 1012.2 |
| 20260509140259 | 55 | 259 | 1.0 | 6.0 | 0.00 | 0.00 | 0.00 | 64 | 1012.2 |
| 20260509135955 | 55 | 188 | 1.0 | 7.0 | 0.00 | 0.00 | 0.00 | 64 | 1012.2 |
| 20260509135656 | 54 | 257 | 1.0 | 7.0 | 0.00 | 0.00 | 0.00 | 64 | 1012.2 |
| 20260509135349 | 54 | 249 | 1.0 | 7.0 | 0.00 | 0.00 | 0.00 | 64 | 1012.2 |
| 20260509135049 | 54 | 239 | 2.0 | 7.0 | 0.00 | 0.00 | 0.00 | 64 | 1012.2 |
| 20260509134310 | 54 | 338 | 1.0 | 7.0 | 0.00 | 0.00 | 0.00 | 64 | 1012.1 |
| 20260509133545 | 54 | 310 | 2.0 | 7.0 | 0.00 | 0.00 | 0.00 | 64 | 1012.0 |
| 20260509132822 | 54 | 5 | 2.0 | 7.0 | 0.00 | 0.00 | 0.00 | 64 | 1012.0 |
| 20260509132518 | 54 | 232 | 2.0 | 7.0 | 0.00 | 0.00 | 0.00 | 64 | 1012.1 |
| 20260509132210 | 54 | 281 | 2.0 | 7.0 | 0.00 | 0.00 | 0.00 | 64 | 1012.1 |
| 20260509131914 | 54 | 273 | 1.0 | 6.0 | 0.00 | 0.00 | 0.00 | 64 | 1012.1 |
| 20260509131606 | 54 | 346 | 2.0 | 6.0 | 0.00 | 0.00 | 0.00 | 63 | 1012.0 |
| 20260509131303 | 54 | 281 | 1.0 | 6.0 | 0.00 | 0.00 | 0.00 | 64 | 1012.0 |
| 20260509130952 | 54 | 274 | 0.0 | 4.0 | 0.00 | 0.00 | 0.00 | 64 | 1012.0 |
| 20260509130653 | 54 | 315 | 0.0 | 4.0 | 0.00 | 0.00 | 0.00 | 64 | 1012.1 |
| 20260509125918 | 54 | 250 | 1.0 | 4.0 | 0.00 | 0.00 | 0.00 | 64 | 1012.0 |
| 20260509125619 | 54 | 284 | 1.0 | 4.0 | 0.00 | 0.00 | 0.00 | 64 | 1012.0 |
| 20260509125308 | 53 | 312 | 1.0 | 4.0 | 0.00 | 0.00 | 0.00 | 65 | 1012.0 |
| 20260509124954 | 53 | 291 | 1.0 | 4.0 | 0.00 | 0.00 | 0.00 | 65 | 1012.0 |
| 20260509124655 | 53 | 281 | 1.0 | 3.0 | 0.00 | 0.00 | 0.00 | 65 | 1012.0 |
| 20260509124359 | 53 | 292 | 1.0 | 3.0 | 0.00 | 0.00 | 0.00 | 65 | 1012.0 |
| 20260509124100 | 53 | 292 | 1.0 | 3.0 | 0.00 | 0.00 | 0.00 | 65 | 1012.0 |
| 20260509123755 | 53 | 281 | 1.0 | 3.0 | 0.00 | 0.00 | 0.00 | 65 | 1011.9 |
| 20260509123452 | 53 | 296 | 0.0 | 3.0 | 0.00 | 0.00 | 0.00 | 65 | 1011.7 |
| 20260509123142 | 53 | 279 | 0.0 | 3.0 | 0.00 | 0.00 | 0.00 | 66 | 1011.7 |
| 20260509122832 | 53 | 271 | 0.0 | 2.0 | 0.00 | 0.00 | 0.00 | 66 | 1011.7 |
| 20260509122528 | 53 | 290 | 0.0 | 1.0 | 0.00 | 0.00 | 0.00 | 66 | 1011.7 |
| 20260509122221 | 53 | 291 | 0.0 | 1.0 | 0.00 | 0.00 | 0.00 | 65 | 1011.8 |
| 20260509121910 | 53 | 290 | 0.0 | 1.0 | 0.00 | 0.00 | 0.00 | 65 | 1011.8 |
| 20260509121612 | 53 | 277 | 0.0 | 0.0 | 0.00 | 0.00 | 0.00 | 65 | 1012.0 |
| 20260509121312 | 53 | 275 | 0.0 | 1.0 | 0.00 | 0.00 | 0.00 | 64 | 1012.1 |
| 20260509120140 | 53 | 281 | 0.0 | 5.0 | 0.00 | 0.00 | 0.00 | 64 | 1012.3 |
| 20260509115830 | 53 | 244 | 1.0 | 5.0 | 0.00 | 0.00 | 0.00 | 63 | 1012.4 |
| 20260509115526 | 53 | 269 | 1.0 | 5.0 | 0.00 | 0.00 | 0.00 | 63 | 1012.3 |
| 20260509115215 | 53 | 288 | 1.0 | 3.0 | 0.00 | 0.00 | 0.00 | 63 | 1012.2 |
| 20260509114453 | 53 | 279 | 0.0 | 2.0 | 0.00 | 0.00 | 0.00 | 63 | 1012.0 |
| 20260509114145 | 53 | 305 | 0.0 | 2.0 | 0.00 | 0.00 | 0.00 | 63 | 1012.1 |
| 20260509113834 | 53 | 290 | 0.0 | 2.0 | 0.00 | 0.00 | 0.00 | 63 | 1012.0 |
| 20260509113055 | 53 | 290 | 0.0 | 0.0 | 0.00 | 0.00 | 0.00 | 63 | 1011.9 |
| 20260509112754 | 53 | 293 | 0.0 | 0.0 | 0.00 | 0.00 | 0.00 | 62 | 1011.7 |
| 20260509112445 | 53 | 291 | 0.0 | 0.0 | 0.00 | 0.00 | 0.00 | 62 | 1011.7 |
| 20260509112140 | 53 | 291 | 0.0 | 0.0 | 0.00 | 0.00 | 0.00 | 62 | 1011.7 |
| 20260509111831 | 52 | 291 | 0.0 | 1.0 | 0.00 | 0.00 | 0.00 | 62 | 1011.7 |
| 20260509111107 | 52 | 236 | 0.0 | 2.0 | 0.00 | 0.00 | 0.00 | 62 | 1011.8 |
| 20260509110807 | 52 | 321 | 0.0 | 2.0 | 0.00 | 0.00 | 0.00 | 63 | 1011.7 |
| 20260509105625 | 52 | 253 | 0.0 | 2.0 | 0.00 | 0.00 | 0.00 | 63 | 1011.8 |
| 20260509105321 | 52 | 267 | 0.0 | 3.0 | 0.00 | 0.00 | 0.00 | 62 | 1011.5 |
| 20260509105023 | 52 | 49 | 0.0 | 3.0 | 0.00 | 0.00 | 0.00 | 62 | 1011.3 |
| 20260509104715 | 52 | 61 | 0.0 | 3.0 | 0.00 | 0.00 | 0.00 | 62 | 1011.2 |
| 20260509104419 | 52 | 60 | 0.0 | 3.0 | 0.00 | 0.00 | 0.00 | 62 | 1011.2 |
| 20260509104110 | 52 | 109 | 0.0 | 0.0 | 0.00 | 0.00 | 0.00 | 62 | 1011.3 |
| 20260509103814 | 52 | 107 | 0.0 | 0.0 | 0.00 | 0.00 | 0.00 | 62 | 1011.3 |
| 20260509103509 | 52 | 240 | 0.0 | 0.0 | 0.00 | 0.00 | 0.00 | 62 | 1011.4 |
| 20260509103202 | 52 | 101 | 0.0 | 0.0 | 0.00 | 0.00 | 0.00 | 62 | 1011.1 |
| 20260509102850 | 52 | 286 | 0.0 | 0.0 | 0.00 | 0.00 | 0.00 | 61 | 1011.4 |
| 20260509102540 | 52 | 244 | 0.0 | 0.0 | 0.00 | 0.00 | 0.00 | 62 | 1011.4 |
| 20260509102228 | 52 | 244 | 0.0 | 0.0 | 0.00 | 0.00 | 0.00 | 61 | 1011.3 |
| 20260509101931 | 52 | 95 | 1.0 | 4.0 | 0.00 | 0.00 | 0.00 | 62 | 1011.2 |
| 20260509101210 | 51 | 94 | 0.0 | 3.0 | 0.00 | 0.00 | 0.00 | 62 | 1011.0 |
| 20260509100909 | 51 | 82 | 0.0 | 3.0 | 0.00 | 0.00 | 0.00 | 62 | 1011.0 |
| 20260509100604 | 51 | 82 | 0.0 | 0.0 | 0.00 | 0.00 | 0.00 | 62 | 1011.2 |
| 20260509100305 | 51 | 82 | 0.0 | 1.0 | 0.00 | 0.00 | 0.00 | 63 | 1011.2 |
| 20260509095959 | 51 | 286 | 0.0 | 0.0 | 0.00 | 0.00 | 0.00 | 62 | 1011.3 |
| 20260509095646 | 51 | 286 | 0.0 | 2.0 | 0.00 | 0.00 | 0.00 | 63 | 1011.2 |
| 20260509095338 | 51 | 276 | 0.0 | 2.0 | 0.00 | 0.00 | 0.00 | 62 | 1011.3 |
| 20260509095025 | 51 | 269 | 0.0 | 2.0 | 0.00 | 0.00 | 0.00 | 62 | 1011.4 |
| 20260509094713 | 51 | 150 | 0.0 | 0.0 | 0.00 | 0.00 | 0.00 | 62 | 1011.2 |
| 20260509094417 | 51 | 150 | 0.0 | 0.0 | 0.00 | 0.00 | 0.00 | 62 | 1011.2 |
| 20260509094116 | 51 | 150 | 0.0 | 0.0 | 0.00 | 0.00 | 0.00 | 63 | 1011.2 |
| 20260509092940 | 51 | 150 | 0.0 | 0.0 | 0.00 | 0.00 | 0.00 | 62 | 1011.3 |
| 20260509092644 | 51 | 150 | 0.0 | 0.0 | 0.00 | 0.00 | 0.00 | 62 | 1011.3 |
| 20260509091924 | 51 | 150 | 0.0 | 0.0 | 0.00 | 0.00 | 0.00 | 61 | 1011.4 |
| 20260509091200 | 51 | 150 | 0.0 | 0.0 | 0.00 | 0.00 | 0.00 | 61 | 1011.2 |
| 20260509090849 | 52 | 150 | 0.0 | 0.0 | 0.00 | 0.00 | 0.00 | 61 | 1011.3 |
| 20260509090549 | 52 | 150 | 0.0 | 0.0 | 0.00 | 0.00 | 0.00 | 61 | 1011.3 |
| 20260509084946 | 52 | 150 | 0.0 | 0.0 | 0.00 | 0.00 | 0.00 | 61 | 1011.4 |
| 20260509084633 | 52 | 150 | 0.0 | 0.0 | 0.00 | 0.00 | 0.00 | 61 | 1011.4 |
| 20260509084330 | 52 | 150 | 0.0 | 0.0 | 0.00 | 0.00 | 0.00 | 61 | 1011.4 |
| 20260509084027 | 52 | 150 | 0.0 | 0.0 | 0.00 | 0.00 | 0.00 | 61 | 1011.5 |
| 20260509083721 | 52 | 150 | 0.0 | 0.0 | 0.00 | 0.00 | 0.00 | 61 | 1011.4 |
| 20260509083414 | 52 | 94 | 0.0 | 1.0 | 0.00 | 0.00 | 0.00 | 62 | 1011.5 |
| 20260509083103 | 51 | 72 | 0.0 | 0.0 | 0.00 | 0.00 | 0.00 | 62 | 1011.5 |
| 20260509082755 | 51 | 72 | 0.0 | 0.0 | 0.00 | 0.00 | 0.00 | 62 | 1011.5 |
| 20260509082457 | 51 | 72 | 0.0 | 0.0 | 0.00 | 0.00 | 0.00 | 62 | 1011.5 |
| 20260509082159 | 51 | 65 | 0.0 | 0.0 | 0.00 | 0.00 | 0.00 | 62 | 1011.7 |
| 20260509081017 | 51 | 65 | 0.0 | 2.0 | 0.00 | 0.00 | 0.00 | 62 | 1011.7 |
| 20260509080720 | 51 | 75 | 0.0 | 0.0 | 0.00 | 0.00 | 0.00 | 63 | 1011.5 |
| 20260509080411 | 51 | 78 | 0.0 | 0.0 | 0.00 | 0.00 | 0.00 | 63 | 1011.5 |
| 20260509080106 | 51 | 78 | 0.0 | 0.0 | 0.00 | 0.00 | 0.00 | 63 | 1011.6 |
| 20260509075801 | 51 | 78 | 0.0 | 0.0 | 0.00 | 0.00 | 0.00 | 63 | 1011.6 |
| 20260509075500 | 51 | 145 | 0.0 | 0.0 | 0.00 | 0.00 | 0.00 | 62 | 1011.7 |
| 20260509075156 | 51 | 145 | 0.0 | 0.0 | 0.00 | 0.00 | 0.00 | 63 | 1011.7 |
| 20260509074856 | 51 | 145 | 0.0 | 0.0 | 0.00 | 0.00 | 0.00 | 63 | 1011.7 |
| 20260509074557 | 51 | 83 | 0.0 | 0.0 | 0.00 | 0.00 | 0.00 | 63 | 1011.7 |
| 20260509074256 | 51 | 86 | 0.0 | 0.0 | 0.00 | 0.00 | 0.00 | 63 | 1011.7 |
| 20260509073955 | 51 | 190 | 0.0 | 0.0 | 0.00 | 0.00 | 0.00 | 62 | 1011.7 |
| 20260509073650 | 51 | 190 | 0.0 | 0.0 | 0.00 | 0.00 | 0.00 | 63 | 1011.7 |
| 20260509073339 | 51 | 190 | 0.0 | 0.0 | 0.00 | 0.00 | 0.00 | 63 | 1011.7 |
| 20260509073039 | 51 | 190 | 0.0 | 0.0 | 0.00 | 0.00 | 0.00 | 63 | 1011.8 |
| 20260509072734 | 51 | 190 | 0.0 | 0.0 | 0.00 | 0.00 | 0.00 | 62 | 1011.7 |
| 20260509072433 | 51 | 190 | 0.0 | 0.0 | 0.00 | 0.00 | 0.00 | 62 | 1011.8 |
| 20260509072121 | 51 | 190 | 0.0 | 0.0 | 0.00 | 0.00 | 0.00 | 62 | 1011.9 |
| 20260509071818 | 51 | 190 | 0.0 | 0.0 | 0.00 | 0.00 | 0.00 | 62 | 1011.9 |
| 20260509071519 | 51 | 190 | 0.0 | 0.0 | 0.00 | 0.00 | 0.00 | 62 | 1011.9 |
| 20260509071206 | 51 | 199 | 0.0 | 0.0 | 0.00 | 0.00 | 0.00 | 62 | 1011.9 |
| 20260509070859 | 51 | 199 | 0.0 | 0.0 | 0.00 | 0.00 | 0.00 | 62 | 1012.0 |
| 20260509070604 | 51 | 199 | 0.0 | 0.0 | 0.00 | 0.00 | 0.00 | 61 | 1012.0 |
| 20260509070304 | 51 | 199 | 0.0 | 0.0 | 0.00 | 0.00 | 0.00 | 61 | 1011.9 |
| 20260509065954 | 51 | 199 | 0.0 | 0.0 | 0.00 | 0.00 | 0.00 | 61 | 1012.0 |
| 20260509065643 | 51 | 199 | 0.0 | 0.0 | 0.00 | 0.00 | 0.00 | 61 | 1012.0 |
| 20260509065347 | 51 | 259 | 0.0 | 0.0 | 0.00 | 0.00 | 0.00 | 61 | 1012.0 |
| 20260509065044 | 52 | 337 | 0.0 | 0.0 | 0.00 | 0.00 | 0.00 | 60 | 1012.1 |
| 20260509064741 | 52 | 337 | 0.0 | 0.0 | 0.00 | 0.00 | 0.00 | 60 | 1012.1 |
| 20260509064434 | 52 | 336 | 0.0 | 0.0 | 0.00 | 0.00 | 0.00 | 60 | 1012.2 |
| 20260509063710 | 52 | 336 | 0.0 | 0.0 | 0.00 | 0.00 | 0.00 | 60 | 1012.2 |
| 20260509063405 | 52 | 336 | 0.0 | 0.0 | 0.00 | 0.00 | 0.00 | 60 | 1012.3 |
| 20260509063053 | 52 | 336 | 0.0 | 0.0 | 0.00 | 0.00 | 0.00 | 60 | 1012.3 |
| 20260509062744 | 52 | 336 | 0.0 | 0.0 | 0.00 | 0.00 | 0.00 | 60 | 1012.4 |
| 20260509062438 | 52 | 336 | 0.0 | 0.0 | 0.00 | 0.00 | 0.00 | 60 | 1012.3 |
| 20260509062133 | 52 | 335 | 0.0 | 0.0 | 0.00 | 0.00 | 0.00 | 60 | 1012.3 |
| 20260509061818 | 52 | 59 | 0.0 | 0.0 | 0.00 | 0.00 | 0.00 | 59 | 1012.3 |
| 20260509061508 | 52 | 79 | 0.0 | 0.0 | 0.00 | 0.00 | 0.00 | 59 | 1012.4 |
| 20260509061157 | 53 | 95 | 0.0 | 0.0 | 0.00 | 0.00 | 0.00 | 59 | 1012.4 |
| 20260509060842 | 53 | 95 | 0.0 | 0.0 | 0.00 | 0.00 | 0.00 | 59 | 1012.4 |
| 20260509060528 | 53 | 92 | 0.0 | 0.0 | 0.00 | 0.00 | 0.00 | 59 | 1012.4 |
| 20260509060218 | 53 | 355 | 0.0 | 0.0 | 0.00 | 0.00 | 0.00 | 59 | 1012.3 |
| 20260509053741 | 54 | 342 | 0.0 | 0.0 | 0.00 | 0.00 | 0.00 | 58 | 1012.1 |
| 20260509053434 | 53 | 342 | 0.0 | 0.0 | 0.00 | 0.00 | 0.00 | 58 | 1012.3 |
| 20260509053126 | 54 | 342 | 0.0 | 0.0 | 0.00 | 0.00 | 0.00 | 58 | 1012.3 |
| 20260509052816 | 54 | 342 | 0.0 | 0.0 | 0.00 | 0.00 | 0.00 | 58 | 1012.3 |
| 20260509052512 | 54 | 342 | 0.0 | 0.0 | 0.00 | 0.00 | 0.00 | 58 | 1012.3 |
| 20260509051747 | 54 | 299 | 0.0 | 0.0 | 0.00 | 0.00 | 0.00 | 57 | 1012.4 |
| 20260509051436 | 54 | 299 | 0.0 | 0.0 | 0.00 | 0.00 | 0.00 | 57 | 1012.4 |
| 20260509051124 | 54 | 299 | 0.0 | 0.0 | 0.00 | 0.00 | 0.00 | 58 | 1012.4 |
| 20260509050811 | 54 | 299 | 0.0 | 0.0 | 0.00 | 0.00 | 0.00 | 57 | 1012.6 |
| 20260509050511 | 54 | 299 | 0.0 | 0.0 | 0.00 | 0.00 | 0.00 | 57 | 1012.5 |
| 20260509050201 | 54 | 299 | 0.0 | 0.0 | 0.00 | 0.00 | 0.00 | 58 | 1012.6 |
| 20260509045853 | 54 | 299 | 0.0 | 0.0 | 0.00 | 0.00 | 0.00 | 58 | 1012.7 |
| 20260509045553 | 54 | 299 | 0.0 | 0.0 | 0.00 | 0.00 | 0.00 | 58 | 1012.6 |
| 20260509045249 | 54 | 212 | 0.0 | 0.0 | 0.00 | 0.00 | 0.00 | 57 | 1012.7 |
| 20260509044947 | 54 | 212 | 0.0 | 0.0 | 0.00 | 0.00 | 0.00 | 57 | 1012.6 |
| 20260509044640 | 54 | 212 | 0.0 | 0.0 | 0.00 | 0.00 | 0.00 | 57 | 1012.7 |
| 20260509043923 | 54 | 212 | 0.0 | 0.0 | 0.00 | 0.00 | 0.00 | 57 | 1012.6 |
| 20260509042757 | 54 | 212 | 0.0 | 0.0 | 0.00 | 0.00 | 0.00 | 56 | 1012.6 |
| 20260509042447 | 54 | 212 | 0.0 | 0.0 | 0.00 | 0.00 | 0.00 | 55 | 1012.7 |
| 20260509042148 | 54 | 212 | 0.0 | 0.0 | 0.00 | 0.00 | 0.00 | 56 | 1012.7 |
| 20260509041835 | 54 | 212 | 0.0 | 0.0 | 0.00 | 0.00 | 0.00 | 56 | 1012.7 |
| 20260509041535 | 54 | 212 | 0.0 | 0.0 | 0.00 | 0.00 | 0.00 | 56 | 1012.7 |
| 20260509041226 | 54 | 240 | 0.0 | 0.0 | 0.00 | 0.00 | 0.00 | 55 | 1012.8 |
| 20260509040923 | 54 | 240 | 0.0 | 0.0 | 0.00 | 0.00 | 0.00 | 55 | 1012.7 |
| 20260509040620 | 54 | 240 | 0.0 | 0.0 | 0.00 | 0.00 | 0.00 | 54 | 1012.7 |
| 20260509040310 | 54 | 180 | 0.0 | 0.0 | 0.00 | 0.00 | 0.00 | 54 | 1012.6 |
| 20260509040000 | 54 | 180 | 0.0 | 0.0 | 0.00 | 0.00 | 0.00 | 54 | 1012.6 |
| 20260509035650 | 54 | 180 | 0.0 | 0.0 | 0.00 | 0.00 | 0.00 | 54 | 1012.7 |
| 20260509035353 | 55 | 180 | 0.0 | 0.0 | 0.00 | 0.00 | 0.00 | 53 | 1012.8 |
| 20260509035052 | 55 | 180 | 0.0 | 0.0 | 0.00 | 0.00 | 0.00 | 54 | 1012.8 |
| 20260509033900 | 55 | 180 | 0.0 | 0.0 | 0.00 | 0.00 | 0.00 | 52 | 1012.8 |
| 20260509033555 | 55 | 180 | 0.0 | 0.0 | 0.00 | 0.00 | 0.00 | 53 | 1012.9 |
| 20260509033243 | 55 | 180 | 0.0 | 0.0 | 0.00 | 0.00 | 0.00 | 52 | 1012.9 |
| 20260509032939 | 55 | 180 | 0.0 | 0.0 | 0.00 | 0.00 | 0.00 | 52 | 1013.0 |
| 20260509032634 | 55 | 180 | 0.0 | 0.0 | 0.00 | 0.00 | 0.00 | 52 | 1013.0 |
| 20260509032336 | 55 | 180 | 0.0 | 0.0 | 0.00 | 0.00 | 0.00 | 52 | 1013.1 |
| 20260509032026 | 55 | 180 | 0.0 | 0.0 | 0.00 | 0.00 | 0.00 | 52 | 1013.2 |
| 20260509031312 | 55 | 180 | 0.0 | 0.0 | 0.00 | 0.00 | 0.00 | 52 | 1013.2 |
| 20260509031002 | 55 | 254 | 0.0 | 0.0 | 0.00 | 0.00 | 0.00 | 52 | 1013.2 |
| 20260509030653 | 55 | 254 | 0.0 | 0.0 | 0.00 | 0.00 | 0.00 | 52 | 1013.1 |
| 20260509030350 | 55 | 254 | 0.0 | 0.0 | 0.00 | 0.00 | 0.00 | 52 | 1013.1 |
| 20260509030039 | 55 | 254 | 0.0 | 0.0 | 0.00 | 0.00 | 0.00 | 52 | 1013.1 |
| 20260509025316 | 55 | 254 | 0.0 | 0.0 | 0.00 | 0.00 | 0.00 | 51 | 1013.3 |
| 20260509025014 | 55 | 254 | 0.0 | 0.0 | 0.00 | 0.00 | 0.00 | 51 | 1013.3 |
| 20260509024708 | 55 | 254 | 0.0 | 0.0 | 0.00 | 0.00 | 0.00 | 51 | 1013.3 |
| 20260509024409 | 56 | 254 | 0.0 | 0.0 | 0.00 | 0.00 | 0.00 | 51 | 1013.3 |
| 20260509024056 | 56 | 254 | 0.0 | 0.0 | 0.00 | 0.00 | 0.00 | 51 | 1013.3 |
| 20260509023347 | 56 | 205 | 0.0 | 0.0 | 0.00 | 0.00 | 0.00 | 51 | 1013.2 |
| 20260509022631 | 56 | 226 | 0.0 | 0.0 | 0.00 | 0.00 | 0.00 | 51 | 1013.1 |
| 20260509022324 | 56 | 226 | 0.0 | 0.0 | 0.00 | 0.00 | 0.00 | 51 | 1013.2 |
| 20260509021558 | 56 | 239 | 0.0 | 0.0 | 0.00 | 0.00 | 0.00 | 51 | 1013.1 |
| 20260509020829 | 56 | 245 | 0.0 | 0.0 | 0.00 | 0.00 | 0.00 | 50 | 1013.0 |
| 20260509020529 | 56 | 245 | 0.0 | 0.0 | 0.00 | 0.00 | 0.00 | 50 | 1013.0 |
| 20260509020223 | 56 | 245 | 0.0 | 0.0 | 0.00 | 0.00 | 0.00 | 50 | 1012.9 |
| 20260509015910 | 56 | 245 | 0.0 | 0.0 | 0.00 | 0.00 | 0.00 | 49 | 1012.9 |
| 20260509015600 | 56 | 245 | 0.0 | 0.0 | 0.00 | 0.00 | 0.00 | 49 | 1012.7 |
| 20260509015253 | 57 | 245 | 0.0 | 0.0 | 0.00 | 0.00 | 0.00 | 49 | 1012.7 |
| 20260509014946 | 57 | 245 | 0.0 | 0.0 | 0.00 | 0.00 | 0.00 | 49 | 1012.8 |
| 20260509014646 | 57 | 245 | 0.0 | 0.0 | 0.00 | 0.00 | 0.00 | 48 | 1012.8 |
| 20260509014344 | 57 | 245 | 0.0 | 0.0 | 0.00 | 0.00 | 0.00 | 48 | 1012.8 |
| 20260509014036 | 57 | 245 | 0.0 | 0.0 | 0.00 | 0.00 | 0.00 | 48 | 1012.8 |
| 20260509013727 | 57 | 245 | 0.0 | 0.0 | 0.00 | 0.00 | 0.00 | 47 | 1012.6 |
| 20260509013419 | 57 | 245 | 0.0 | 0.0 | 0.00 | 0.00 | 0.00 | 47 | 1012.7 |
| 20260509013114 | 57 | 245 | 0.0 | 0.0 | 0.00 | 0.00 | 0.00 | 47 | 1012.7 |
| 20260509012800 | 57 | 245 | 0.0 | 0.0 | 0.00 | 0.00 | 0.00 | 47 | 1012.7 |
| 20260509012452 | 58 | 245 | 0.0 | 0.0 | 0.00 | 0.00 | 0.00 | 47 | 1012.7 |
| 20260509012150 | 58 | 245 | 0.0 | 0.0 | 0.00 | 0.00 | 0.00 | 46 | 1012.8 |
| 20260509011851 | 58 | 245 | 0.0 | 0.0 | 0.00 | 0.00 | 0.00 | 47 | 1012.7 |
| 20260509011547 | 58 | 245 | 0.0 | 0.0 | 0.00 | 0.00 | 0.00 | 47 | 1012.8 |
| 20260509011252 | 58 | 245 | 0.0 | 0.0 | 0.00 | 0.00 | 0.00 | 46 | 1012.7 |
| 20260509010952 | 58 | 245 | 0.0 | 0.0 | 0.00 | 0.00 | 0.00 | 45 | 1012.6 |
| 20260509010649 | 58 | 245 | 0.0 | 0.0 | 0.00 | 0.00 | 0.00 | 43 | 1012.7 |
| 20260509010353 | 58 | 246 | 0.0 | 0.0 | 0.00 | 0.00 | 0.00 | 44 | 1012.6 |
| 20260509010045 | 58 | 246 | 0.0 | 0.0 | 0.00 | 0.00 | 0.00 | 43 | 1012.7 |
| 20260509005312 | 58 | 246 | 0.0 | 0.0 | 0.00 | 0.00 | 0.00 | 43 | 1012.7 |
| 20260509004538 | 59 | 246 | 0.0 | 0.0 | 0.00 | 0.00 | 0.00 | 43 | 1012.6 |
| 20260509004239 | 59 | 246 | 0.0 | 0.0 | 0.00 | 0.00 | 0.00 | 42 | 1012.6 |
| 20260509003931 | 59 | 246 | 0.0 | 0.0 | 0.00 | 0.00 | 0.00 | 42 | 1012.6 |
| 20260509003635 | 59 | 246 | 0.0 | 0.0 | 0.00 | 0.00 | 0.00 | 43 | 1012.5 |
| 20260509002437 | 59 | 263 | 0.0 | 0.0 | 0.00 | 0.00 | 0.00 | 41 | 1012.5 |
| 20260509002138 | 60 | 263 | 0.0 | 0.0 | 0.00 | 0.00 | 0.00 | 40 | 1012.6 |
| 20260509001825 | 60 | 263 | 0.0 | 0.0 | 0.00 | 0.00 | 0.00 | 40 | 1012.6 |
| 20260509001523 | 60 | 263 | 0.0 | 0.0 | 0.00 | 0.00 | 0.00 | 40 | 1012.6 |
| 20260509001222 | 60 | 263 | 0.0 | 0.0 | 0.00 | 0.00 | 0.00 | 39 | 1012.6 |
| 20260509000911 | 60 | 263 | 0.0 | 0.0 | 0.00 | 0.00 | 0.00 | 39 | 1012.5 |
| 20260509000613 | 60 | 203 | 0.0 | 0.0 | 0.00 | 0.00 | 0.00 | 39 | 1012.5 |
| 20260509000311 | 60 | 203 | 0.0 | 0.0 | 0.00 | 0.00 | 0.00 | 39 | 1012.4 |
| 20260508235956 | 61 | 9 | 0.0 | 0.0 | 0.00 | 0.00 | 0.00 | 38 | 1012.3 |
| 20260508235238 | 61 | 286 | 0.0 | 5.0 | 0.00 | 0.00 | 0.00 | 38 | 1012.3 |
| 20260508234935 | 61 | 334 | 1.0 | 5.0 | 0.00 | 0.00 | 0.00 | 38 | 1012.3 |
| 20260508234627 | 61 | 257 | 0.0 | 5.0 | 0.00 | 0.00 | 0.00 | 37 | 1012.3 |
| 20260508234324 | 61 | 265 | 0.0 | 5.0 | 0.00 | 0.00 | 0.00 | 37 | 1012.2 |
| 20260508234014 | 62 | 207 | 0.0 | 5.0 | 0.00 | 0.00 | 0.00 | 36 | 1012.2 |
| 20260508233716 | 62 | 286 | 0.0 | 5.0 | 0.00 | 0.00 | 0.00 | 36 | 1012.1 |
| 20260508233402 | 62 | 94 | 1.0 | 7.0 | 0.00 | 0.00 | 0.00 | 36 | 1012.1 |
| 20260508233105 | 62 | 267 | 1.0 | 7.0 | 0.00 | 0.00 | 0.00 | 36 | 1012.1 |
| 20260508232758 | 62 | 281 | 2.0 | 7.0 | 0.00 | 0.00 | 0.00 | 35 | 1012.0 |
| 20260508232456 | 62 | 244 | 2.0 | 7.0 | 0.00 | 0.00 | 0.00 | 35 | 1012.0 |
| 20260508231740 | 63 | 331 | 3.0 | 10.0 | 0.00 | 0.00 | 0.00 | 34 | 1011.9 |
| 20260508231427 | 63 | 277 | 4.0 | 10.0 | 0.00 | 0.00 | 0.00 | 34 | 1011.8 |
| 20260508230237 | 63 | 208 | 3.0 | 11.0 | 0.00 | 0.00 | 0.00 | 34 | 1011.8 |
| 20260508225924 | 63 | 342 | 2.0 | 11.0 | 0.00 | 0.00 | 0.00 | 34 | 1011.8 |
| 20260508225615 | 63 | 304 | 2.0 | 11.0 | 0.00 | 0.00 | 0.00 | 34 | 1011.9 |
| 20260508225310 | 64 | 54 | 1.0 | 5.0 | 0.00 | 0.00 | 0.00 | 35 | 1011.9 |
| 20260508225001 | 64 | 285 | 1.0 | 3.0 | 0.00 | 0.00 | 0.00 | 34 | 1012.0 |
| 20260508224650 | 64 | 250 | 1.0 | 3.0 | 0.00 | 0.00 | 0.00 | 35 | 1012.0 |
| 20260508224350 | 64 | 318 | 1.0 | 3.0 | 0.00 | 0.00 | 0.00 | 35 | 1011.9 |
| 20260508224041 | 64 | 259 | 1.0 | 7.0 | 0.00 | 0.00 | 0.00 | 34 | 1011.9 |
| 20260508222430 | 64 | 273 | 1.0 | 7.0 | 0.00 | 0.00 | 0.00 | 33 | 1011.9 |
| 20260508222119 | 64 | 193 | 1.0 | 8.0 | 0.00 | 0.00 | 0.00 | 35 | 1011.8 |
| 20260508221814 | 64 | 245 | 1.0 | 8.0 | 0.00 | 0.00 | 0.00 | 34 | 1011.7 |
| 20260508221503 | 64 | 273 | 2.0 | 8.0 | 0.00 | 0.00 | 0.00 | 34 | 1011.7 |
| 20260508221157 | 64 | 277 | 2.0 | 8.0 | 0.00 | 0.00 | 0.00 | 33 | 1011.6 |
| 20260508220437 | 64 | 254 | 2.0 | 8.0 | 0.00 | 0.00 | 0.00 | 32 | 1011.8 |
| 20260508215245 | 64 | 304 | 2.0 | 9.0 | 0.00 | 0.00 | 0.00 | 32 | 1011.8 |
| 20260508214944 | 64 | 292 | 2.0 | 12.0 | 0.00 | 0.00 | 0.00 | 34 | 1011.8 |
| 20260508214638 | 64 | 217 | 2.0 | 12.0 | 0.00 | 0.00 | 0.00 | 32 | 1011.8 |
| 20260508213907 | 64 | 210 | 2.0 | 12.0 | 0.00 | 0.00 | 0.00 | 31 | 1011.8 |
| 20260508213604 | 64 | 227 | 3.0 | 12.0 | 0.00 | 0.00 | 0.00 | 31 | 1011.9 |
| 20260508212837 | 64 | 296 | 4.0 | 12.0 | 0.00 | 0.00 | 0.00 | 29 | 1012.0 |
| 20260508212534 | 64 | 257 | 4.0 | 12.0 | 0.00 | 0.00 | 0.00 | 29 | 1011.8 |
| 20260508212235 | 64 | 275 | 4.0 | 12.0 | 0.00 | 0.00 | 0.00 | 29 | 1012.0 |
| 20260508211930 | 64 | 282 | 3.0 | 11.0 | 0.00 | 0.00 | 0.00 | 29 | 1011.8 |
| 20260508211631 | 64 | 286 | 3.0 | 11.0 | 0.00 | 0.00 | 0.00 | 28 | 1011.8 |
| 20260508211326 | 65 | 300 | 4.0 | 11.0 | 0.00 | 0.00 | 0.00 | 28 | 1011.8 |
| 20260508211017 | 65 | 314 | 4.0 | 11.0 | 0.00 | 0.00 | 0.00 | 28 | 1011.8 |
| 20260508210711 | 65 | 285 | 4.0 | 11.0 | 0.00 | 0.00 | 0.00 | 27 | 1011.8 |
| 20260508210415 | 65 | 234 | 4.0 | 11.0 | 0.00 | 0.00 | 0.00 | 27 | 1011.8 |
| 20260508205652 | 65 | 281 | 3.0 | 10.0 | 0.00 | 0.00 | 0.00 | 28 | 1011.6 |
| 20260508205341 | 65 | 292 | 3.0 | 9.0 | 0.00 | 0.00 | 0.00 | 27 | 1011.7 |
| 20260508205030 | 65 | 164 | 3.0 | 9.0 | 0.00 | 0.00 | 0.00 | 27 | 1011.8 |
| 20260508204727 | 65 | 208 | 3.0 | 9.0 | 0.00 | 0.00 | 0.00 | 26 | 1011.8 |
| 20260508204418 | 65 | 190 | 2.0 | 9.0 | 0.00 | 0.00 | 0.00 | 26 | 1011.7 |
| 20260508203701 | 65 | 255 | 3.0 | 10.0 | 0.00 | 0.00 | 0.00 | 26 | 1011.8 |
| 20260508203404 | 65 | 209 | 3.0 | 10.0 | 0.00 | 0.00 | 0.00 | 26 | 1011.8 |
| 20260508203049 | 65 | 307 | 3.0 | 15.0 | 0.00 | 0.00 | 0.00 | 27 | 1011.7 |
| 20260508202745 | 65 | 278 | 4.0 | 15.0 | 0.00 | 0.00 | 0.00 | 26 | 1011.7 |
| 20260508202441 | 65 | 271 | 4.0 | 15.0 | 0.00 | 0.00 | 0.00 | 26 | 1011.7 |
| 20260508202136 | 65 | 323 | 5.0 | 15.0 | 0.00 | 0.00 | 0.00 | 25 | 1011.7 |
| 20260508201409 | 65 | 320 | 5.0 | 15.0 | 0.00 | 0.00 | 0.00 | 24 | 1011.9 |
| 20260508201107 | 65 | 293 | 5.0 | 15.0 | 0.00 | 0.00 | 0.00 | 24 | 1011.9 |
| 20260508200801 | 65 | 197 | 4.0 | 15.0 | 0.00 | 0.00 | 0.00 | 25 | 1011.9 |